Terminal Aerodrome Forecast
Issued by NWS Mt. Holly, NJ

Current Version | Previous Version | Text Only | Print | Product List | Glossary On
Versions: 1 2 3 4 5 6 7 8 9 10 11 12 13 14 15 16 17 18
000
FTUS41 KPHI 191129
TAFRDG
TAF
KRDG 191129Z 1912/2012 05006KT P6SM SCT250
     FM191400 12008KT P6SM SCT250
     FM192200 10010KT P6SM SCT035 BKN120
     FM200300 10012KT P6SM SCT010 OVC035
     FM200500 09014KT 4SM -RA BR OVC008 WS020/14040KT=

USA.gov is the U.S. government's official web portal to all federal, state and local government web resources and services.